Time;durP1;ratioP1;P1;durP2;ratioP2;P2;SDS_P1;SDS_P2;PMS_P1;PMS_P2;Temp;Humidity;BMP_temperature;BMP_pressure;BME280_temperature;BME280_humidity;BME280_pressure;Samples;Min_cycle;Max_cycle;Signal;HPM_P1;HPM_P2
2023/11/13 00:02:13;;;;;;;0.05;0.05;;;25.30;41.80;;;;;;5023578;28;20219;-50
2023/11/13 00:04:45;;;;;;;0.00;0.00;;;25.30;41.80;;;;;;5030185;28;20223;-49
2023/11/13 00:07:16;;;;;;;0.00;0.00;;;25.30;41.80;;;;;;5011586;28;20217;-50
2023/11/13 00:09:46;;;;;;;0.00;0.00;;;25.40;41.80;;;;;;5027729;28;20188;-52
2023/11/13 00:12:17;;;;;;;0.00;0.00;;;25.40;41.90;;;;;;5012947;28;20205;-50
2023/11/13 00:14:50;;;;;;;0.00;0.00;;;25.40;41.80;;;;;;5012036;28;20217;-51
2023/11/13 00:17:21;;;;;;;0.00;0.00;;;25.40;41.90;;;;;;5011418;28;20212;-51
2023/11/13 00:19:51;;;;;;;0.00;0.00;;;25.40;41.80;;;;;;5013648;28;20654;-49
2023/11/13 00:22:22;;;;;;;0.00;0.00;;;25.40;41.80;;;;;;5031850;28;20184;-52
2023/11/13 00:24:53;;;;;;;0.00;0.00;;;25.40;41.80;;;;;;5029480;28;20204;-52
2023/11/13 00:27:23;;;;;;;0.00;0.00;;;25.40;41.70;;;;;;5011590;28;20498;-52
2023/11/13 00:29:56;;;;;;;0.00;0.00;;;25.50;41.70;;;;;;5011659;28;20193;-49
2023/11/13 00:32:27;;;;;;;0.00;0.00;;;25.50;41.60;;;;;;5010598;28;20225;-49
2023/11/13 00:34:58;;;;;;;0.00;0.00;;;25.50;41.60;;;;;;5011488;28;20195;-50
2023/11/13 00:37:29;;;;;;;0.00;0.00;;;25.50;41.60;;;;;;5011615;28;20212;-51
2023/11/13 00:39:59;;;;;;;0.00;0.00;;;25.60;41.50;;;;;;5010971;28;20193;-47
2023/11/13 00:42:30;;;;;;;0.00;0.00;;;25.60;41.50;;;;;;5022095;28;20653;-51
2023/11/13 00:45:02;;;;;;;0.00;0.00;;;25.60;41.50;;;;;;5028419;28;20200;-52
2023/11/13 00:47:33;;;;;;;0.00;0.00;;;25.60;41.60;;;;;;5010381;28;20304;-50
2023/11/13 00:50:04;;;;;;;0.00;0.00;;;25.60;41.60;;;;;;5011103;28;20584;-50
2023/11/13 00:52:34;;;;;;;0.00;0.00;;;25.60;41.60;;;;;;5010832;28;20222;-49
2023/11/13 00:55:06;;;;;;;0.00;0.00;;;25.60;41.70;;;;;;5010687;28;20196;-52
2023/11/13 00:57:36;;;;;;;0.00;0.00;;;25.60;41.70;;;;;;5011610;28;20316;-48
2023/11/13 01:00:10;;;;;;;0.00;0.00;;;25.70;41.80;;;;;;5009998;28;20204;-50
2023/11/13 01:02:41;;;;;;;0.00;0.00;;;25.70;41.90;;;;;;5012464;28;20196;-47
2023/11/13 01:05:12;;;;;;;0.00;0.00;;;25.70;41.90;;;;;;5011163;28;20197;-51
2023/11/13 01:07:42;;;;;;;0.00;0.00;;;25.70;41.90;;;;;;5010628;28;20221;-49
2023/11/13 01:10:13;;;;;;;0.00;0.00;;;25.80;42.00;;;;;;5011425;28;20673;-50
2023/11/13 01:12:44;;;;;;;0.03;0.03;;;25.70;41.90;;;;;;5010334;28;20654;-55
2023/11/13 01:15:17;;;;;;;0.00;0.00;;;25.80;41.80;;;;;;5011696;28;20196;-50
2023/11/13 01:17:47;;;;;;;0.00;0.00;;;25.80;41.60;;;;;;5010867;28;20225;-53
2023/11/13 01:20:19;;;;;;;0.00;0.00;;;25.80;41.60;;;;;;5011234;28;20204;-49
2023/11/13 01:22:50;;;;;;;0.00;0.00;;;25.80;41.50;;;;;;5015740;28;20191;-47
2023/11/13 01:25:21;;;;;;;0.00;0.00;;;25.80;41.50;;;;;;5028001;28;20204;-52
2023/11/13 01:27:51;;;;;;;0.00;0.00;;;25.90;41.50;;;;;;5010958;28;20212;-52
2023/11/13 01:30:24;;;;;;;0.00;0.00;;;25.90;41.50;;;;;;5010714;28;20207;-47
2023/11/13 01:32:55;;;;;;;0.00;0.00;;;25.90;41.40;;;;;;5011107;28;20533;-48
2023/11/13 01:35:26;;;;;;;0.00;0.00;;;25.90;41.50;;;;;;5003512;28;20202;-47
2023/11/13 01:37:57;;;;;;;0.00;0.00;;;25.90;41.90;;;;;;5010400;28;20225;-46
2023/11/13 01:40:28;;;;;;;0.00;0.00;;;26.00;41.70;;;;;;5009910;28;20197;-48
2023/11/13 01:42:58;;;;;;;0.00;0.00;;;25.90;41.60;;;;;;5011279;28;20207;-52
2023/11/13 01:45:31;;;;;;;0.00;0.00;;;26.00;41.70;;;;;;5010761;28;20525;-46
2023/11/13 01:48:01;;;;;;;0.00;0.00;;;26.00;41.70;;;;;;5011486;28;20220;-48
2023/11/13 01:50:32;;;;;;;0.00;0.00;;;26.00;41.70;;;;;;5010559;28;20232;-50
2023/11/13 01:53:03;;;;;;;0.00;0.00;;;26.00;41.70;;;;;;5010521;28;20221;-48
2023/11/13 01:55:34;;;;;;;0.00;0.00;;;26.00;41.70;;;;;;5009721;28;20208;-44
2023/11/13 01:58:05;;;;;;;0.00;0.00;;;26.00;41.70;;;;;;5009845;28;20239;-49
2023/11/13 02:00:38;;;;;;;0.00;0.00;;;26.00;41.70;;;;;;5012594;28;20283;-48
2023/11/13 02:03:10;;;;;;;0.00;0.00;;;26.00;41.70;;;;;;5015571;28;20235;-46
2023/11/13 02:05:42;;;;;;;0.00;0.00;;;26.10;41.60;;;;;;5033982;28;20676;-48
2023/11/13 02:08:12;;;;;;;0.00;0.00;;;26.10;41.50;;;;;;5034118;28;20223;-51
2023/11/13 02:10:43;;;;;;;0.00;0.00;;;26.20;41.40;;;;;;5031350;28;20184;-50
2023/11/13 02:13:15;;;;;;;0.00;0.00;;;26.20;41.30;;;;;;5014485;28;20693;-48
2023/11/13 02:15:48;;;;;;;0.00;0.00;;;26.20;41.30;;;;;;5014491;28;20197;-47
2023/11/13 02:18:19;;;;;;;0.00;0.00;;;26.20;41.20;;;;;;5022755;28;20749;-54
2023/11/13 02:20:49;;;;;;;0.00;0.00;;;26.20;41.10;;;;;;5034117;28;20668;-50
2023/11/13 02:23:22;;;;;;;0.00;0.00;;;26.30;41.20;;;;;;5034122;28;20200;-46
2023/11/13 02:25:55;;;;;;;0.00;0.00;;;26.30;41.20;;;;;;5034007;28;20664;-52
2023/11/13 02:28:26;;;;;;;0.00;0.00;;;26.30;41.20;;;;;;5034263;28;20216;-54
2023/11/13 02:30:57;;;;;;;0.00;0.00;;;26.30;41.30;;;;;;5034242;28;20204;-55
2023/11/13 02:33:31;;;;;;;0.00;0.00;;;26.30;41.30;;;;;;5033882;28;20231;-54
2023/11/13 02:36:01;;;;;;;0.00;0.00;;;26.40;41.40;;;;;;5033963;28;20558;-55
2023/11/13 02:38:34;;;;;;;0.00;0.00;;;26.40;41.30;;;;;;5034669;28;20216;-48
2023/11/13 02:41:05;;;;;;;0.00;0.00;;;26.40;41.30;;;;;;5028675;28;20205;-49
2023/11/13 02:43:35;;;;;;;0.00;0.00;;;26.40;41.30;;;;;;5014201;28;20233;-52
2023/11/13 02:46:06;;;;;;;0.00;0.00;;;26.40;41.30;;;;;;5014336;28;20212;-52
2023/11/13 02:48:37;;;;;;;0.00;0.00;;;26.50;41.30;;;;;;5014380;28;20221;-54
2023/11/13 02:51:07;;;;;;;0.00;0.00;;;26.50;41.20;;;;;;5014351;28;20568;-52
2023/11/13 02:53:40;;;;;;;0.00;0.00;;;26.50;41.00;;;;;;5014022;28;20707;-44
2023/11/13 02:56:11;;;;;;;0.00;0.00;;;26.60;41.00;;;;;;5013685;28;20215;-52
2023/11/13 02:58:41;;;;;;;0.00;0.00;;;26.60;40.90;;;;;;5013470;28;20232;-54
2023/11/13 03:01:12;;;;;;;0.00;0.00;;;26.60;40.80;;;;;;5012882;28;20197;-51
2023/11/13 03:03:43;;;;;;;0.00;0.00;;;26.60;40.80;;;;;;5013794;28;20200;-54
2023/11/13 03:06:14;;;;;;;0.00;0.00;;;26.70;40.70;;;;;;5013627;28;20203;-54
2023/11/13 03:08:46;;;;;;;0.00;0.00;;;26.70;40.70;;;;;;5014074;28;20252;-51
2023/11/13 03:11:17;;;;;;;0.00;0.00;;;26.80;40.80;;;;;;5013347;28;20661;-55
2023/11/13 03:13:48;;;;;;;0.00;0.00;;;26.80;40.80;;;;;;5013534;28;20282;-50
2023/11/13 03:16:19;;;;;;;0.00;0.00;;;26.80;40.90;;;;;;5013519;28;20201;-51
2023/11/13 03:18:50;;;;;;;0.00;0.00;;;26.90;41.00;;;;;;5028250;28;20291;-51
2023/11/13 03:21:20;;;;;;;0.00;0.00;;;26.90;41.00;;;;;;5032887;28;20196;-54
2023/11/13 03:23:55;;;;;;;0.00;0.00;;;26.90;41.00;;;;;;5032821;28;20626;-46
2023/11/13 03:26:28;;;;;;;0.00;0.00;;;27.00;41.00;;;;;;5032968;28;20200;-50
2023/11/13 03:28:59;;;;;;;0.00;0.00;;;27.00;41.00;;;;;;5033505;28;20273;-56
2023/11/13 03:31:29;;;;;;;0.00;0.00;;;27.00;41.00;;;;;;5033351;28;20610;-50
2023/11/13 03:34:00;;;;;;;0.00;0.00;;;27.00;41.10;;;;;;5032725;28;20228;-55
2023/11/13 03:36:31;;;;;;;0.00;0.00;;;27.10;41.10;;;;;;5032590;28;20192;-52
2023/11/13 03:39:03;;;;;;;0.00;0.00;;;27.10;41.10;;;;;;5033359;28;20196;-55
2023/11/13 03:41:34;;;;;;;0.00;0.00;;;27.10;41.10;;;;;;5023067;28;20218;-51
2023/11/13 03:44:05;;;;;;;0.00;0.00;;;27.10;41.00;;;;;;5012800;28;20197;-47
2023/11/13 03:46:35;;;;;;;0.00;0.00;;;27.10;40.90;;;;;;5012475;28;20201;-50
2023/11/13 03:49:06;;;;;;;0.00;0.00;;;27.10;40.90;;;;;;5007642;28;20200;-52
2023/11/13 03:51:37;;;;;;;0.00;0.00;;;27.20;41.00;;;;;;5012162;28;20203;-50
2023/11/13 03:54:10;;;;;;;0.00;0.00;;;27.20;40.80;;;;;;5006211;28;20221;-50
2023/11/13 03:56:40;;;;;;;0.00;0.00;;;27.30;40.90;;;;;;4992452;28;20201;-46
2023/11/13 03:59:11;;;;;;;0.00;0.00;;;27.30;40.90;;;;;;5007855;28;20196;-52
2023/11/13 04:01:42;;;;;;;0.00;0.00;;;27.30;40.80;;;;;;5012129;28;20197;-52
2023/11/13 04:04:12;;;;;;;0.00;0.00;;;27.30;40.90;;;;;;5016481;28;20193;-51
2023/11/13 04:06:43;;;;;;;0.00;0.00;;;27.40;40.90;;;;;;5010848;28;20213;-52
2023/11/13 04:09:16;;;;;;;0.00;0.00;;;27.40;41.00;;;;;;5011985;28;20192;-52
2023/11/13 04:11:48;;;;;;;0.00;0.00;;;27.40;41.00;;;;;;5011590;28;20580;-45
2023/11/13 04:14:18;;;;;;;0.00;0.00;;;27.40;41.00;;;;;;5026297;28;20737;-52
2023/11/13 04:16:49;;;;;;;0.00;0.00;;;27.40;40.90;;;;;;5011296;28;20221;-53
2023/11/13 04:19:20;;;;;;;0.00;0.00;;;27.50;40.90;;;;;;5011563;28;20197;-53
2023/11/13 04:21:50;;;;;;;0.00;0.00;;;27.50;40.90;;;;;;5011729;28;20197;-55
2023/11/13 04:24:23;;;;;;;0.00;0.00;;;27.50;40.70;;;;;;5011548;28;20192;-52
2023/11/13 04:26:54;;;;;;;0.00;0.00;;;27.50;40.70;;;;;;5011126;28;20216;-53
2023/11/13 04:29:24;;;;;;;0.00;0.00;;;27.50;40.80;;;;;;5011181;28;20196;-52
2023/11/13 04:31:55;;;;;;;0.00;0.00;;;27.50;40.60;;;;;;5010987;28;20208;-48
2023/11/13 04:34:26;;;;;;;0.00;0.00;;;27.60;40.50;;;;;;5011707;28;20223;-48
2023/11/13 04:36:57;;;;;;;0.00;0.00;;;27.60;40.50;;;;;;5011227;28;20247;-50
2023/11/13 04:39:29;;;;;;;0.00;0.00;;;27.60;40.50;;;;;;5010930;28;20224;-44
2023/11/13 04:42:00;;;;;;;0.00;0.00;;;27.60;40.30;;;;;;5011616;28;20665;-49
2023/11/13 04:44:31;;;;;;;0.00;0.00;;;27.60;40.30;;;;;;5011193;28;20205;-51
2023/11/13 04:47:01;;;;;;;0.00;0.00;;;27.60;40.20;;;;;;5011933;28;20274;-52
2023/11/13 04:49:32;;;;;;;0.00;0.00;;;27.60;40.20;;;;;;5011578;28;20197;-54
2023/11/13 04:52:03;;;;;;;0.00;0.00;;;27.70;40.20;;;;;;5011349;28;20541;-53
2023/11/13 04:54:35;;;;;;;0.00;0.00;;;27.70;40.20;;;;;;5011263;28;20232;-50
2023/11/13 04:57:06;;;;;;;0.00;0.00;;;27.70;40.20;;;;;;5010949;28;20228;-46
2023/11/13 04:59:37;;;;;;;0.00;0.00;;;27.70;40.20;;;;;;5011590;28;20196;-50
2023/11/13 05:02:09;;;;;;;0.00;0.00;;;27.70;40.20;;;;;;5011473;28;20193;-51
2023/11/13 05:04:40;;;;;;;0.00;0.00;;;27.80;40.30;;;;;;5012467;28;20284;-54
2023/11/13 05:07:10;;;;;;;0.00;0.00;;;27.80;40.30;;;;;;5011129;28;20599;-55
2023/11/13 05:09:45;;;;;;;0.00;0.00;;;27.80;40.30;;;;;;5009319;28;20197;-54
2023/11/13 05:12:15;;;;;;;0.00;0.00;;;27.80;40.30;;;;;;5011310;28;20652;-56
2023/11/13 05:14:46;;;;;;;0.00;0.00;;;27.80;40.40;;;;;;5027110;28;20251;-53
2023/11/13 05:17:16;;;;;;;0.00;0.00;;;27.80;40.90;;;;;;5031030;28;20220;-54
2023/11/13 05:19:47;;;;;;;0.00;0.00;;;27.80;40.20;;;;;;5013637;28;20211;-53
2023/11/13 05:22:18;;;;;;;0.00;0.00;;;27.80;40.20;;;;;;5011560;28;20258;-53
2023/11/13 05:24:50;;;;;;;0.00;0.00;;;27.80;40.10;;;;;;5010350;28;20561;-52
2023/11/13 05:27:21;;;;;;;0.00;0.00;;;27.80;40.10;;;;;;5010410;28;20709;-54
2023/11/13 05:29:52;;;;;;;0.00;0.00;;;27.90;40.00;;;;;;5010885;28;20251;-55
2023/11/13 05:32:22;;;;;;;0.00;0.00;;;27.90;40.10;;;;;;5008515;28;20204;-52
2023/11/13 05:34:53;;;;;;;0.00;0.00;;;27.90;40.10;;;;;;5013033;28;20580;-54
2023/11/13 05:37:24;;;;;;;0.00;0.00;;;27.90;40.00;;;;;;5014916;28;20220;-53
2023/11/13 05:39:56;;;;;;;0.00;0.00;;;27.90;40.00;;;;;;5014872;28;20715;-54
2023/11/13 05:42:27;;;;;;;0.00;0.00;;;27.90;40.10;;;;;;5014537;28;20230;-55
2023/11/13 05:44:57;;;;;;;0.00;0.00;;;27.90;40.00;;;;;;5014416;28;20197;-55
2023/11/13 05:47:28;;;;;;;0.00;0.00;;;27.90;40.00;;;;;;5014372;28;20303;-54
2023/11/13 05:49:59;;;;;;;0.00;0.00;;;27.90;40.00;;;;;;5014804;28;20795;-58
2023/11/13 05:52:29;;;;;;;0.00;0.00;;;27.90;40.10;;;;;;5014282;28;20204;-53
2023/11/13 05:55:02;;;;;;;0.00;0.00;;;27.90;40.00;;;;;;5014182;28;20220;-54
2023/11/13 05:57:33;;;;;;;0.00;0.00;;;27.90;40.00;;;;;;5022080;28;20219;-54
2023/11/13 06:00:04;;;;;;;0.00;0.00;;;27.90;40.00;;;;;;5017367;28;20190;-52
2023/11/13 06:02:35;;;;;;;0.00;0.00;;;27.90;39.90;;;;;;5014923;28;20236;-56
2023/11/13 06:05:05;;;;;;;0.00;0.00;;;27.90;39.90;;;;;;5016054;28;20497;-54
2023/11/13 06:07:36;;;;;;;0.00;0.00;;;27.90;39.90;;;;;;5033693;28;20649;-53
2023/11/13 06:10:11;;;;;;;0.00;0.00;;;27.90;40.00;;;;;;5017351;28;20205;-50
2023/11/13 06:12:41;;;;;;;0.00;0.00;;;27.90;39.90;;;;;;5014787;28;20204;-55
2023/11/13 06:15:13;;;;;;;0.00;0.00;;;27.90;39.90;;;;;;5013850;28;20304;-53
2023/11/13 06:17:44;;;;;;;0.00;0.00;;;27.90;39.90;;;;;;5013552;28;20244;-55
2023/11/13 06:20:15;;;;;;;0.00;0.00;;;27.90;40.00;;;;;;5013739;28;20195;-54
2023/11/13 06:22:47;;;;;;;0.00;0.00;;;27.90;39.90;;;;;;5013023;28;20201;-52
2023/11/13 06:25:20;;;;;;;0.00;0.00;;;27.90;39.90;;;;;;5013872;28;20197;-54
2023/11/13 06:27:51;;;;;;;0.00;0.00;;;27.90;39.70;;;;;;5013624;28;20588;-54
2023/11/13 06:30:22;;;;;;;0.00;0.00;;;27.90;40.30;;;;;;5013686;28;20248;-55
2023/11/13 06:32:53;;;;;;;0.00;0.00;;;28.00;39.50;;;;;;5014518;28;20342;-55
2023/11/13 06:35:23;;;;;;;0.00;0.00;;;27.90;39.30;;;;;;5014246;28;20224;-52
2023/11/13 06:37:54;;;;;;;0.00;0.00;;;27.90;39.20;;;;;;5013180;28;20224;-55
2023/11/13 06:40:27;;;;;;;0.00;0.00;;;27.90;39.00;;;;;;5013408;28;20208;-55
2023/11/13 06:42:59;;;;;;;0.00;0.00;;;27.90;38.90;;;;;;5013564;28;20201;-55
2023/11/13 06:45:30;;;;;;;0.00;0.00;;;27.90;38.80;;;;;;5012579;28;20208;-54
2023/11/13 06:48:01;;;;;;;0.00;0.00;;;27.90;38.70;;;;;;5013965;28;20217;-52
2023/11/13 06:50:31;;;;;;;0.00;0.00;;;27.90;38.70;;;;;;5014362;28;20200;-52
2023/11/13 06:53:02;;;;;;;0.00;0.00;;;27.80;38.70;;;;;;5013204;28;20631;-55
2023/11/13 06:55:35;;;;;;;0.00;0.00;;;27.80;38.70;;;;;;5013533;28;20655;-55
2023/11/13 06:58:07;;;;;;;0.00;0.00;;;27.80;38.70;;;;;;5013709;28;20625;-50
2023/11/13 07:00:38;;;;;;;0.00;0.00;;;27.80;38.80;;;;;;5013838;28;20283;-54
2023/11/13 07:03:10;;;;;;;0.00;0.00;;;27.80;39.40;;;;;;5014230;28;20205;-54
2023/11/13 07:05:41;;;;;;;0.00;0.00;;;27.80;38.80;;;;;;5013746;28;20193;-54
2023/11/13 07:08:13;;;;;;;0.00;0.00;;;27.80;38.80;;;;;;5013243;28;20216;-53
2023/11/13 07:10:45;;;;;;;0.00;0.00;;;27.80;38.70;;;;;;5013556;28;20200;-56
2023/11/13 07:13:16;;;;;;;0.00;0.00;;;27.70;38.60;;;;;;5013400;28;20723;-55
2023/11/13 07:15:47;;;;;;;0.00;0.00;;;27.70;38.40;;;;;;5013704;28;20226;-56
2023/11/13 07:18:18;;;;;;;0.00;0.00;;;27.70;38.10;;;;;;5012870;28;20224;-54
2023/11/13 07:20:50;;;;;;;0.00;0.00;;;27.70;38.00;;;;;;5019049;28;20193;-44
2023/11/13 07:23:21;;;;;;;0.00;0.00;;;27.70;37.90;;;;;;5032801;28;20196;-51
2023/11/13 07:25:53;;;;;;;0.00;0.00;;;27.60;37.80;;;;;;5032806;28;20684;-56
2023/11/13 07:28:24;;;;;;;0.00;0.00;;;27.60;37.70;;;;;;5033741;28;20584;-54
2023/11/13 07:30:55;;;;;;;0.00;0.00;;;27.60;36.80;;;;;;5033215;28;20663;-50
2023/11/13 07:33:25;;;;;;;0.00;0.00;;;27.60;36.30;;;;;;5032787;28;20668;-54
2023/11/13 07:35:56;;;;;;;0.00;0.00;;;27.50;36.20;;;;;;5032795;28;20599;-54
2023/11/13 07:38:27;;;;;;;0.00;0.00;;;27.40;36.30;;;;;;5032702;28;20212;-52
2023/11/13 07:40:59;;;;;;;0.00;0.00;;;27.40;36.50;;;;;;5014177;28;20205;-52
2023/11/13 07:43:31;;;;;;;0.00;0.00;;;27.30;36.40;;;;;;5012478;28;20228;-55
2023/11/13 07:46:02;;;;;;;0.00;0.00;;;27.30;36.70;;;;;;5010024;28;20228;-54
2023/11/13 07:48:32;;;;;;;0.00;0.00;;;27.30;36.70;;;;;;4993100;28;20228;-53
2023/11/13 07:51:03;;;;;;;0.00;0.00;;;27.20;36.80;;;;;;5009363;28;20197;-51
2023/11/13 07:53:35;;;;;;;0.00;0.00;;;27.20;36.80;;;;;;5012087;28;20632;-55
2023/11/13 07:56:11;;;;;;;0.00;0.00;;;27.20;36.90;;;;;;5012542;28;20473;-55
2023/11/13 07:58:42;;;;;;;0.00;0.00;;;27.20;36.90;;;;;;5005602;28;20227;-54
2023/11/13 08:01:12;;;;;;;0.00;0.00;;;27.10;36.90;;;;;;5018217;28;20486;-52
2023/11/13 08:03:43;;;;;;;0.00;0.00;;;27.10;36.90;;;;;;5030391;28;20196;-54
2023/11/13 08:06:14;;;;;;;0.00;0.00;;;27.10;36.80;;;;;;5018613;28;20554;-52
2023/11/13 08:08:45;;;;;;;0.00;0.00;;;27.10;36.80;;;;;;5027116;28;20220;-54
2023/11/13 08:11:18;;;;;;;0.00;0.00;;;27.10;36.80;;;;;;5017247;28;20196;-57
2023/11/13 08:13:48;;;;;;;0.00;0.00;;;27.10;36.80;;;;;;5012458;28;20591;-54
2023/11/13 08:16:19;;;;;;;0.00;0.00;;;27.00;36.90;;;;;;5012124;28;20239;-47
2023/11/13 08:18:51;;;;;;;0.00;0.00;;;27.00;36.90;;;;;;5012090;28;20232;-51
2023/11/13 08:21:21;;;;;;;0.00;0.00;;;27.00;36.90;;;;;;5011567;28;20197;-55
2023/11/13 08:23:53;;;;;;;0.00;0.00;;;27.00;37.00;;;;;;5011549;28;20567;-53
2023/11/13 08:26:28;;;;;;;0.00;0.00;;;26.90;36.90;;;;;;5012181;28;20235;-55
2023/11/13 08:28:59;;;;;;;0.00;0.00;;;26.90;37.00;;;;;;5011475;28;20200;-57
2023/11/13 08:31:30;;;;;;;0.00;0.00;;;26.90;37.10;;;;;;5007070;28;20200;-48
2023/11/13 08:34:01;;;;;;;0.00;0.00;;;26.80;37.00;;;;;;5011581;28;20204;-54
2023/11/13 08:36:32;;;;;;;0.00;0.00;;;26.80;37.10;;;;;;5008982;28;20228;-56
2023/11/13 08:39:03;;;;;;;0.00;0.00;;;26.80;37.10;;;;;;5011850;28;20200;-52
2023/11/13 08:41:36;;;;;;;0.00;0.00;;;26.80;37.10;;;;;;5010861;28;20205;-54
2023/11/13 08:44:07;;;;;;;0.00;0.00;;;26.80;37.10;;;;;;5011124;28;20377;-55
2023/11/13 08:46:38;;;;;;;0.00;0.00;;;26.70;37.10;;;;;;5010972;28;20240;-55
2023/11/13 08:49:08;;;;;;;0.00;0.00;;;26.70;37.10;;;;;;5011591;28;20184;-56
2023/11/13 08:51:40;;;;;;;0.00;0.00;;;26.70;37.10;;;;;;5008834;28;20193;-54
2023/11/13 08:54:11;;;;;;;0.00;0.00;;;26.70;37.20;;;;;;5011367;28;20280;-54
2023/11/13 08:56:44;;;;;;;0.00;0.00;;;26.60;37.10;;;;;;5009699;28;20559;-53
2023/11/13 08:59:15;;;;;;;0.00;0.00;;;26.60;37.10;;;;;;5011199;28;20200;-57
2023/11/13 09:01:45;;;;;;;0.00;0.00;;;26.60;37.10;;;;;;5011409;28;20204;-56
2023/11/13 09:04:16;;;;;;;0.00;0.00;;;26.60;37.10;;;;;;5011621;28;20193;-55
2023/11/13 09:06:47;;;;;;;0.00;0.00;;;26.50;37.10;;;;;;5011155;28;20228;-56
2023/11/13 09:09:17;;;;;;;0.00;0.00;;;26.50;37.10;;;;;;5010044;28;20228;-53
2023/11/13 09:11:52;;;;;;;0.00;0.00;;;26.50;37.10;;;;;;5017328;28;20207;-48
2023/11/13 09:14:23;;;;;;;0.00;0.00;;;26.50;37.20;;;;;;5012760;28;20213;-54
2023/11/13 09:16:54;;;;;;;0.00;0.00;;;26.50;37.20;;;;;;5011348;28;20646;-56
2023/11/13 09:19:28;;;;;;;0.00;0.00;;;26.50;37.30;;;;;;5016779;28;20644;-56
2023/11/13 09:21:59;;;;;;;0.00;0.00;;;26.40;37.20;;;;;;5014994;28;20199;-56
2023/11/13 09:24:30;;;;;;;0.00;0.00;;;26.40;37.30;;;;;;5011141;28;20542;-55
2023/11/13 09:27:02;;;;;;;0.00;0.00;;;26.40;37.40;;;;;;5010281;28;20225;-56
2023/11/13 09:29:34;;;;;;;0.00;0.00;;;26.30;37.40;;;;;;5011451;28;20196;-51
2023/11/13 09:32:04;;;;;;;0.00;0.00;;;26.30;37.40;;;;;;5010419;28;20196;-55
2023/11/13 09:34:35;;;;;;;0.00;0.00;;;26.30;37.50;;;;;;5010853;28;20188;-51
2023/11/13 09:37:06;;;;;;;0.00;0.00;;;26.30;37.50;;;;;;5010890;28;20315;-51
2023/11/13 09:39:41;;;;;;;0.00;0.00;;;26.20;37.40;;;;;;5011230;28;20232;-54
2023/11/13 09:42:18;;;;;;;0.00;0.00;;;26.20;37.50;;;;;;5010178;28;20192;-56
2023/11/13 09:44:52;;;;;;;0.00;0.00;;;26.20;37.50;;;;;;5009815;28;20316;-56
2023/11/13 09:47:24;;;;;;;0.00;0.00;;;26.20;37.50;;;;;;5010371;28;20220;-53
2023/11/13 09:50:01;;;;;;;0.00;0.00;;;26.20;37.50;;;;;;5010774;28;20193;-53
2023/11/13 09:52:34;;;;;;;0.00;0.00;;;26.20;37.50;;;;;;5027084;28;20691;-54
2023/11/13 09:55:05;;;;;;;0.00;0.00;;;26.10;37.50;;;;;;5030753;28;20279;-53
2023/11/13 09:57:38;;;;;;;0.00;0.00;;;26.10;37.60;;;;;;5010961;28;20699;-54
2023/11/13 10:00:16;;;;;;;0.00;0.00;;;26.10;37.60;;;;;;5010648;28;20201;-57
2023/11/13 10:02:49;;;;;;;0.00;0.00;;;26.10;37.60;;;;;;5029879;28;20196;-47
2023/11/13 10:05:20;;;;;;;0.00;0.00;;;26.00;37.60;;;;;;5029843;28;20204;-56
2023/11/13 10:07:52;;;;;;;0.00;0.00;;;26.00;37.60;;;;;;5016742;28;20231;-56
2023/11/13 10:10:25;;;;;;;0.00;0.00;;;26.00;37.70;;;;;;5030534;28;20204;-55
2023/11/13 10:12:58;;;;;;;0.00;0.00;;;26.00;37.80;;;;;;4990904;28;20668;-52
2023/11/13 10:15:29;;;;;;;0.00;0.00;;;25.90;37.70;;;;;;5002996;28;20559;-49
2023/11/13 10:18:01;;;;;;;0.00;0.00;;;26.00;37.80;;;;;;5010733;28;20693;-49
2023/11/13 10:20:32;;;;;;;0.00;0.00;;;25.90;37.80;;;;;;5010630;28;20196;-52
2023/11/13 10:23:04;;;;;;;0.00;0.00;;;25.90;37.90;;;;;;5012953;28;20193;-44
2023/11/13 10:25:45;;;;;;;0.00;0.00;;;25.90;37.90;;;;;;5013855;28;20271;-56
2023/11/13 10:28:19;;;;;;;0.00;0.00;;;25.90;38.00;;;;;;5013180;28;20221;-41
2023/11/13 10:31:00;;;;;;;0.00;0.00;;;25.90;37.90;;;;;;5013189;28;20235;-54
2023/11/13 10:33:31;;;;;;;0.00;0.00;;;25.80;37.90;;;;;;5014553;28;20275;-55
2023/11/13 10:36:04;;;;;;;0.00;0.00;;;25.80;38.00;;;;;;5004781;28;20213;-55
2023/11/13 10:38:47;;;;;;;0.00;0.00;;;25.80;38.00;;;;;;5013287;28;20220;-56
2023/11/13 10:41:24;;;;;;;0.00;0.00;;;25.80;38.10;;;;;;5013613;28;20267;-54
2023/11/13 10:43:56;;;;;;;0.00;0.00;;;25.70;38.10;;;;;;5013782;28;20235;-54
2023/11/13 10:46:36;;;;;;;0.00;0.00;;;25.70;38.10;;;;;;5014095;28;20185;-50
2023/11/13 10:49:12;;;;;;;0.00;0.00;;;25.70;38.20;;;;;;5013801;28;20196;-57
2023/11/13 10:51:43;;;;;;;0.00;0.00;;;25.60;38.10;;;;;;5013198;28;20319;-49
2023/11/13 10:54:17;;;;;;;0.10;0.10;;;25.60;38.10;;;;;;5014306;28;20204;-54
2023/11/13 10:56:50;;;;;;;0.00;0.00;;;25.60;38.20;;;;;;5013221;28;20563;-53
2023/11/13 10:59:23;;;;;;;0.00;0.00;;;25.60;38.30;;;;;;5013370;28;20228;-54
2023/11/13 11:01:58;;;;;;;0.00;0.00;;;25.60;38.40;;;;;;5018652;28;20201;-55
2023/11/13 11:04:30;;;;;;;0.03;0.03;;;25.60;38.40;;;;;;5012781;28;20192;-57
2023/11/13 11:07:04;;;;;;;0.00;0.00;;;25.60;38.40;;;;;;5013073;28;20208;-55
2023/11/13 11:09:37;;;;;;;0.00;0.00;;;25.60;38.50;;;;;;5013113;28;20280;-54
2023/11/13 11:12:09;;;;;;;0.00;0.00;;;25.50;38.50;;;;;;5012974;28;20200;-56
2023/11/13 11:14:55;;;;;;;0.00;0.00;;;25.50;38.50;;;;;;5011001;28;20189;-55
2023/11/13 11:17:33;;;;;;;0.00;0.00;;;25.50;38.50;;;;;;5012067;28;20707;-55
2023/11/13 11:20:10;;;;;;;0.00;0.00;;;25.50;38.60;;;;;;5016484;28;20189;-52
2023/11/13 11:22:48;;;;;;;0.00;0.00;;;25.50;38.60;;;;;;5010969;28;20641;-55
2023/11/13 11:25:46;;;;;;;0.10;0.10;;;25.50;38.60;;;;;;5010352;28;20688;-51
2023/11/13 11:28:42;;;;;;;0.00;0.00;;;25.40;38.60;;;;;;5012696;28;20712;-54
2023/11/13 11:31:49;;;;;;;0.00;0.00;;;25.50;38.70;;;;;;5012621;28;20657;-55
2023/11/13 11:34:28;;;;;;;0.00;0.00;;;25.40;38.70;;;;;;5010623;28;20618;-56
2023/11/13 11:37:04;;;;;;;0.00;0.00;;;25.40;38.70;;;;;;5010511;28;20229;-57
2023/11/13 11:39:48;;;;;;;0.00;0.00;;;25.30;38.70;;;;;;5012881;28;20247;-55
2023/11/13 11:42:27;;;;;;;0.00;0.00;;;25.30;38.80;;;;;;5010620;28;20244;-55
2023/11/13 11:45:07;;;;;;;0.00;0.00;;;25.30;38.90;;;;;;5010414;28;20552;-57
2023/11/13 11:47:38;;;;;;;0.00;0.00;;;25.30;38.90;;;;;;5009910;28;20643;-55
2023/11/13 11:50:14;;;;;;;0.00;0.00;;;25.30;38.90;;;;;;5012617;28;20259;-55
2023/11/13 11:52:51;;;;;;;0.10;0.10;;;25.30;39.10;;;;;;5010946;28;20193;-56
2023/11/13 11:55:22;;;;;;;0.00;0.00;;;25.20;39.00;;;;;;5010582;28;20192;-56
2023/11/13 11:57:55;;;;;;;0.00;0.00;;;25.20;39.00;;;;;;5012666;28;20238;-55
2023/11/13 12:00:27;;;;;;;0.00;0.00;;;25.20;39.00;;;;;;5017730;28;20242;-56
2023/11/13 12:02:58;;;;;;;0.00;0.00;;;25.20;39.00;;;;;;5033280;28;20611;-56
2023/11/13 12:05:30;;;;;;;0.00;0.00;;;25.20;39.10;;;;;;5032376;28;20196;-56
2023/11/13 12:08:01;;;;;;;0.00;0.00;;;25.20;39.70;;;;;;5032779;28;20223;-55
2023/11/13 12:10:34;;;;;;;0.00;0.00;;;25.20;39.10;;;;;;5031486;28;20204;-55
2023/11/13 12:13:06;;;;;;;0.00;0.00;;;25.20;39.10;;;;;;5012156;28;20208;-55
2023/11/13 12:15:37;;;;;;;0.00;0.00;;;25.10;39.10;;;;;;5012291;28;20197;-54
2023/11/13 12:18:08;;;;;;;0.00;0.00;;;25.10;39.10;;;;;;5012467;28;20228;-56
2023/11/13 12:20:40;;;;;;;0.00;0.00;;;25.10;39.10;;;;;;5012591;28;20653;-54
2023/11/13 12:23:15;;;;;;;0.00;0.00;;;25.10;39.20;;;;;;5012310;28;20653;-56
2023/11/13 12:25:46;;;;;;;0.00;0.00;;;25.10;39.20;;;;;;5012449;28;20197;-56
2023/11/13 12:28:17;;;;;;;0.00;0.00;;;25.10;39.20;;;;;;5012077;28;20707;-55
2023/11/13 12:30:48;;;;;;;0.00;0.00;;;25.10;39.30;;;;;;5012066;28;20272;-55
2023/11/13 12:33:19;;;;;;;0.05;0.05;;;25.10;39.40;;;;;;5011498;28;20664;-55
2023/11/13 12:35:58;;;;;;;0.00;0.00;;;25.00;39.30;;;;;;5011596;28;20585;-54
2023/11/13 12:38:29;;;;;;;0.00;0.00;;;25.00;39.40;;;;;;5011677;28;20259;-54
2023/11/13 12:41:00;;;;;;;0.00;0.00;;;25.00;39.40;;;;;;5012172;28;20200;-57
2023/11/13 12:43:31;;;;;;;0.00;0.00;;;25.00;39.40;;;;;;5011387;28;20589;-49
2023/11/13 12:46:05;;;;;;;0.00;0.00;;;25.00;39.50;;;;;;5012133;28;20251;-57
2023/11/13 12:48:36;;;;;;;0.00;0.00;;;25.00;39.50;;;;;;5011800;28;20255;-49
2023/11/13 12:51:11;;;;;;;0.00;0.00;;;24.90;39.40;;;;;;5011629;28;20224;-54
2023/11/13 12:53:49;;;;;;;0.00;0.00;;;24.90;39.40;;;;;;5011671;28;20203;-52
2023/11/13 12:56:19;;;;;;;0.00;0.00;;;24.90;39.40;;;;;;5011932;28;20231;-54
2023/11/13 12:58:52;;;;;;;0.00;0.00;;;24.90;39.40;;;;;;5011716;28;20200;-49
2023/11/13 13:01:23;;;;;;;0.00;0.00;;;24.90;39.50;;;;;;5011437;28;20193;-52
2023/11/13 13:03:53;;;;;;;0.00;0.00;;;24.90;39.50;;;;;;5011964;28;20203;-56
2023/11/13 13:06:26;;;;;;;0.00;0.00;;;24.90;39.60;;;;;;5011430;28;20254;-54
2023/11/13 13:08:59;;;;;;;0.00;0.00;;;24.90;39.60;;;;;;5011758;28;20568;-53
2023/11/13 13:11:30;;;;;;;0.00;0.00;;;24.80;39.50;;;;;;5015419;28;20193;-54
2023/11/13 13:14:01;;;;;;;0.00;0.00;;;24.80;39.50;;;;;;5011603;28;20197;-55